Time;durP1;ratioP1;P1;durP2;ratioP2;P2;SDS_P1;SDS_P2;PMS_P1;PMS_P2;Temp;Humidity;BMP_temperature;BMP_pressure;BME280_temperature;BME280_humidity;BME280_pressure;Samples;Min_cycle;Max_cycle;Signal;HPM_P1;HPM_P2
2022/11/26 00:00:02;;;;;;;32.17;28.83;;;;;;;;;;5099957;28;20940;-80
2022/11/26 00:02:31;;;;;;;33.00;29.70;;;;;;;;;;5099268;28;20484;-81
2022/11/26 00:05:00;;;;;;;32.40;29.20;;;;;;;;;;5100275;28;20464;-80
2022/11/26 00:07:29;;;;;;;37.70;29.10;;;;;;;;;;5099690;28;20540;-80
2022/11/26 00:09:56;;;;;;;34.07;30.37;;;;;;;;;;5100035;28;20448;-80
2022/11/26 00:12:24;;;;;;;34.27;30.63;;;;;;;;;;5099416;28;20431;-80
2022/11/26 00:14:51;;;;;;;39.37;30.80;;;;;;;;;;5099549;28;20447;-81
2022/11/26 00:17:18;;;;;;;32.27;29.17;;;;;;;;;;5099486;28;20787;-81
2022/11/26 00:19:47;;;;;;;35.60;30.60;;;;;;;;;;5099162;28;20444;-80
2022/11/26 00:22:19;;;;;;;36.47;30.70;;;;;;;;;;5098908;28;20480;-80
2022/11/26 00:24:47;;;;;;;33.87;30.17;;;;;;;;;;5098825;28;20480;-80
2022/11/26 00:27:14;;;;;;;36.93;30.97;;;;;;;;;;5098297;28;20940;-81
2022/11/26 00:29:41;;;;;;;34.03;30.30;;;;;;;;;;5098919;28;21246;-81
2022/11/26 00:32:10;;;;;;;40.27;29.90;;;;;;;;;;5098821;28;20807;-80
2022/11/26 00:34:37;;;;;;;38.93;31.80;;;;;;;;;;5098176;28;20936;-81
2022/11/26 00:37:06;;;;;;;34.93;30.40;;;;;;;;;;5099247;28;20445;-80
2022/11/26 00:39:33;;;;;;;39.47;31.43;;;;;;;;;;5098721;28;20425;-81
2022/11/26 00:42:00;;;;;;;42.07;31.93;;;;;;;;;;5098032;28;20477;-80
2022/11/26 00:44:28;;;;;;;35.67;31.93;;;;;;;;;;5098427;28;20421;-81
2022/11/26 00:46:55;;;;;;;33.83;30.10;;;;;;;;;;5098745;28;20440;-80
2022/11/26 00:49:23;;;;;;;36.07;30.33;;;;;;;;;;5099127;28;20451;-80
2022/11/26 00:51:50;;;;;;;43.40;31.57;;;;;;;;;;5097952;28;20459;-80
2022/11/26 00:54:19;;;;;;;43.13;31.27;;;;;;;;;;5098532;28;20510;-80
2022/11/26 00:56:46;;;;;;;39.00;29.47;;;;;;;;;;5098422;28;20479;-80
2022/11/26 00:59:14;;;;;;;39.80;30.90;;;;;;;;;;5098211;28;20445;-80
2022/11/26 01:01:41;;;;;;;34.23;30.57;;;;;;;;;;5099167;28;20455;-81
2022/11/26 01:04:08;;;;;;;41.70;32.40;;;;;;;;;;5098292;28;20939;-80
2022/11/26 01:06:37;;;;;;;39.13;31.07;;;;;;;;;;5097944;28;20476;-80
2022/11/26 01:09:04;;;;;;;34.80;31.10;;;;;;;;;;5099076;28;20461;-80
2022/11/26 01:11:33;;;;;;;36.80;31.77;;;;;;;;;;5099078;28;20452;-80
2022/11/26 01:14:00;;;;;;;36.03;32.40;;;;;;;;;;5097841;28;20452;-79
2022/11/26 01:16:29;;;;;;;39.00;31.40;;;;;;;;;;5098965;28;20495;-80
2022/11/26 01:18:57;;;;;;;49.83;33.07;;;;;;;;;;5099200;28;20460;-80
2022/11/26 01:21:25;;;;;;;31.67;28.43;;;;;;;;;;5100364;28;20443;-81
2022/11/26 01:23:52;;;;;;;35.27;31.70;;;;;;;;;;5101496;28;20481;-81
2022/11/26 01:26:21;;;;;;;47.30;34.20;;;;;;;;;;5102049;28;20452;-79
2022/11/26 01:28:49;;;;;;;47.53;34.23;;;;;;;;;;5102007;28;20475;-80
2022/11/26 01:31:17;;;;;;;39.33;33.27;;;;;;;;;;5102885;28;20452;-81
2022/11/26 01:33:44;;;;;;;47.73;33.57;;;;;;;;;;5102552;28;20797;-80
2022/11/26 01:36:19;;;;;;;47.33;34.00;;;;;;;;;;5102242;28;20479;-81
2022/11/26 01:38:46;;;;;;;52.27;38.20;;;;;;;;;;5102901;28;20448;-81
2022/11/26 01:41:17;;;;;;;48.83;34.60;;;;;;;;;;5102980;28;20474;-81
2022/11/26 01:43:44;;;;;;;55.10;37.47;;;;;;;;;;5101687;28;20767;-80
2022/11/26 01:46:15;;;;;;;41.40;33.13;;;;;;;;;;5101873;28;21098;-80
2022/11/26 01:48:43;;;;;;;48.00;35.63;;;;;;;;;;5102127;28;20446;-80
2022/11/26 01:51:11;;;;;;;56.03;38.17;;;;;;;;;;5101784;28;20805;-80
2022/11/26 01:53:46;;;;;;;48.30;32.33;;;;;;;;;;5101660;28;20444;-79
2022/11/26 01:56:16;;;;;;;44.77;35.20;;;;;;;;;;5102041;28;20524;-80
2022/11/26 01:58:45;;;;;;;48.80;35.60;;;;;;;;;;5101742;28;20445;-80
2022/11/26 02:01:13;;;;;;;55.43;36.77;;;;;;;;;;5100917;28;20453;-80
2022/11/26 02:03:44;;;;;;;45.40;34.67;;;;;;;;;;5100820;28;20486;-80
2022/11/26 02:06:14;;;;;;;50.23;36.77;;;;;;;;;;5101294;28;20972;-80
2022/11/26 02:08:41;;;;;;;56.50;37.07;;;;;;;;;;5101335;28;20474;-80
2022/11/26 02:11:16;;;;;;;47.03;37.17;;;;;;;;;;5102100;28;20939;-80
2022/11/26 02:13:43;;;;;;;50.90;37.87;;;;;;;;;;5101236;28;20444;-80
2022/11/26 02:16:13;;;;;;;51.37;37.77;;;;;;;;;;5100993;28;20478;-80
2022/11/26 02:18:43;;;;;;;45.43;33.20;;;;;;;;;;5101151;28;20466;-80
2022/11/26 02:21:15;;;;;;;45.97;32.20;;;;;;;;;;5101512;28;20454;-80
2022/11/26 02:23:57;;;;;;;43.70;34.80;;;;;;;;;;5101187;28;20823;-81
2022/11/26 02:26:34;;;;;;;49.07;36.40;;;;;;;;;;5089584;28;20471;-81
2022/11/26 02:29:05;;;;;;;47.40;35.97;;;;;;;;;;5101863;28;20436;-80
2022/11/26 02:31:37;;;;;;;46.93;35.27;;;;;;;;;;5100862;28;20425;-80
2022/11/26 02:34:10;;;;;;;48.27;37.60;;;;;;;;;;5100200;28;20466;-80
2022/11/26 02:36:39;;;;;;;43.63;33.67;;;;;;;;;;5101789;28;20465;-80
2022/11/26 02:39:13;;;;;;;50.50;37.80;;;;;;;;;;5101323;28;20946;-81
2022/11/26 02:41:44;;;;;;;46.37;37.17;;;;;;;;;;5101687;28;20424;-81
2022/11/26 02:44:11;;;;;;;50.10;37.60;;;;;;;;;;5101600;28;20865;-81
2022/11/26 02:46:40;;;;;;;49.03;37.57;;;;;;;;;;5101741;28;20480;-80
2022/11/26 02:49:10;;;;;;;51.07;38.07;;;;;;;;;;5101471;28;20456;-80
2022/11/26 02:51:37;;;;;;;55.23;35.97;;;;;;;;;;5102136;28;20452;-80
2022/11/26 02:54:06;;;;;;;51.83;38.60;;;;;;;;;;5101457;28;20433;-82
2022/11/26 02:56:33;;;;;;;43.40;35.30;;;;;;;;;;5101362;28;20482;-80
2022/11/26 02:59:01;;;;;;;50.13;37.83;;;;;;;;;;5100662;28;20460;-80
2022/11/26 03:01:30;;;;;;;55.17;39.77;;;;;;;;;;5099739;28;20488;-80
2022/11/26 03:04:01;;;;;;;44.20;34.57;;;;;;;;;;5099558;28;21046;-80
2022/11/26 03:06:30;;;;;;;47.47;37.03;;;;;;;;;;5100267;28;20968;-80
2022/11/26 03:08:58;;;;;;;53.90;35.97;;;;;;;;;;5100227;28;20443;-81
2022/11/26 03:11:25;;;;;;;41.53;33.73;;;;;;;;;;5099784;28;20458;-80
2022/11/26 03:13:52;;;;;;;47.07;35.97;;;;;;;;;;5099291;28;20459;-80
2022/11/26 03:16:19;;;;;;;46.10;36.20;;;;;;;;;;5100282;28;20464;-80
2022/11/26 03:18:46;;;;;;;51.07;37.50;;;;;;;;;;5099940;28;20468;-80
2022/11/26 03:21:15;;;;;;;48.90;35.00;;;;;;;;;;5100272;28;20460;-80
2022/11/26 03:23:42;;;;;;;41.93;36.30;;;;;;;;;;5099072;28;20991;-80
2022/11/26 03:26:09;;;;;;;45.67;35.63;;;;;;;;;;5099645;28;20974;-80
2022/11/26 03:28:36;;;;;;;48.93;35.03;;;;;;;;;;5099925;28;20938;-80
2022/11/26 03:31:03;;;;;;;53.87;38.37;;;;;;;;;;5099699;28;20948;-80
2022/11/26 03:33:30;;;;;;;61.70;40.17;;;;;;;;;;5099609;28;20449;-80
2022/11/26 03:35:57;;;;;;;45.27;38.10;;;;;;;;;;5099095;28;20466;-80
2022/11/26 03:38:26;;;;;;;56.00;38.10;;;;;;;;;;5099675;28;20450;-80
2022/11/26 03:40:56;;;;;;;52.77;38.37;;;;;;;;;;5099547;28;20457;-80
2022/11/26 03:43:23;;;;;;;64.77;39.77;;;;;;;;;;5098591;28;20475;-80
2022/11/26 03:45:50;;;;;;;55.33;38.30;;;;;;;;;;5099760;28;20482;-80
2022/11/26 03:48:17;;;;;;;63.23;41.03;;;;;;;;;;5100441;28;20503;-81
2022/11/26 03:50:45;;;;;;;56.87;37.47;;;;;;;;;;5100235;28;20444;-80
2022/11/26 03:53:12;;;;;;;64.67;39.20;;;;;;;;;;5099069;28;20451;-80
2022/11/26 03:55:41;;;;;;;52.87;39.90;;;;;;;;;;5099550;28;20476;-80
2022/11/26 03:58:09;;;;;;;58.37;38.90;;;;;;;;;;5099192;28;20886;-80
2022/11/26 04:00:36;;;;;;;55.70;39.47;;;;;;;;;;5099507;28;20636;-81
2022/11/26 04:03:03;;;;;;;52.33;37.93;;;;;;;;;;5099108;28;20483;-80
2022/11/26 04:05:30;;;;;;;50.33;38.40;;;;;;;;;;5099470;28;20471;-79
2022/11/26 04:07:57;;;;;;;60.10;41.40;;;;;;;;;;5100392;28;20453;-80
2022/11/26 04:10:24;;;;;;;67.03;39.73;;;;;;;;;;5099806;28;20448;-80
2022/11/26 04:12:52;;;;;;;56.43;39.90;;;;;;;;;;5098497;28;20463;-80
2022/11/26 04:15:19;;;;;;;53.97;39.90;;;;;;;;;;5098758;28;20477;-80
2022/11/26 04:17:47;;;;;;;58.63;39.53;;;;;;;;;;5099249;28;20882;-80
2022/11/26 04:20:14;;;;;;;70.17;41.97;;;;;;;;;;5099217;28;20464;-80
2022/11/26 04:22:41;;;;;;;69.37;44.00;;;;;;;;;;5098419;28;20477;-81
2022/11/26 04:25:08;;;;;;;65.97;42.40;;;;;;;;;;5098832;28;20469;-80
2022/11/26 04:27:35;;;;;;;62.00;43.07;;;;;;;;;;5099051;28;20441;-80
2022/11/26 04:30:04;;;;;;;62.90;44.40;;;;;;;;;;5098697;28;20449;-80
2022/11/26 04:32:31;;;;;;;60.97;41.83;;;;;;;;;;5099435;28;20456;-81
2022/11/26 04:34:58;;;;;;;56.90;41.37;;;;;;;;;;5098844;28;20476;-81
2022/11/26 04:37:25;;;;;;;65.93;43.27;;;;;;;;;;5098997;28;20802;-80
2022/11/26 04:39:52;;;;;;;60.03;42.77;;;;;;;;;;5099736;28;20550;-80
2022/11/26 04:42:19;;;;;;;68.77;41.67;;;;;;;;;;5099463;28;20462;-80
2022/11/26 04:44:47;;;;;;;66.83;44.20;;;;;;;;;;5098771;28;20475;-81
2022/11/26 04:47:16;;;;;;;65.43;41.43;;;;;;;;;;5098507;28;20464;-81
2022/11/26 04:49:43;;;;;;;63.47;42.90;;;;;;;;;;5098692;28;20425;-80
2022/11/26 04:52:10;;;;;;;60.10;43.57;;;;;;;;;;5097924;28;20452;-81
2022/11/26 04:54:37;;;;;;;67.10;44.50;;;;;;;;;;5098113;28;20445;-81
2022/11/26 04:57:04;;;;;;;69.10;42.67;;;;;;;;;;5098447;28;20448;-80
2022/11/26 04:59:31;;;;;;;60.37;40.97;;;;;;;;;;5098603;28;20438;-81
2022/11/26 05:01:59;;;;;;;60.53;42.40;;;;;;;;;;5098176;28;20706;-81
2022/11/26 05:04:27;;;;;;;62.80;41.93;;;;;;;;;;5098093;28;20519;-82
2022/11/26 05:06:54;;;;;;;60.57;40.90;;;;;;;;;;5097973;28;20447;-80
2022/11/26 05:09:22;;;;;;;58.97;42.40;;;;;;;;;;5098076;28;20448;-80
2022/11/26 05:11:49;;;;;;;71.97;44.13;;;;;;;;;;5097503;28;20836;-81
2022/11/26 05:14:16;;;;;;;70.07;40.73;;;;;;;;;;5098195;28;20445;-81
2022/11/26 05:16:43;;;;;;;61.00;41.67;;;;;;;;;;5097539;28;20477;-80
2022/11/26 05:19:10;;;;;;;59.90;40.93;;;;;;;;;;5097645;28;20798;-81
2022/11/26 05:21:39;;;;;;;66.30;42.40;;;;;;;;;;5098881;28;20448;-80
2022/11/26 05:24:06;;;;;;;62.10;41.80;;;;;;;;;;5097963;28;20483;-80
2022/11/26 05:26:33;;;;;;;62.07;40.97;;;;;;;;;;5098266;28;20476;-80
2022/11/26 05:29:00;;;;;;;70.13;41.40;;;;;;;;;;5098000;28;20951;-81
2022/11/26 05:31:28;;;;;;;58.37;38.10;;;;;;;;;;5098747;28;20415;-80
2022/11/26 05:33:55;;;;;;;56.43;39.63;;;;;;;;;;5097224;28;20445;-81
2022/11/26 05:36:23;;;;;;;50.90;37.20;;;;;;;;;;5097806;28;20979;-80
2022/11/26 05:38:51;;;;;;;48.63;36.47;;;;;;;;;;5097982;28;20463;-81
2022/11/26 05:41:18;;;;;;;55.77;39.83;;;;;;;;;;5097102;28;20461;-80
2022/11/26 05:43:45;;;;;;;65.43;41.83;;;;;;;;;;5096741;28;20487;-80
2022/11/26 05:46:15;;;;;;;64.80;42.40;;;;;;;;;;5097564;28;20453;-81
2022/11/26 05:48:42;;;;;;;72.97;41.20;;;;;;;;;;5097945;28;20452;-81
2022/11/26 05:51:10;;;;;;;65.17;40.90;;;;;;;;;;5097940;28;20467;-80
2022/11/26 05:53:37;;;;;;;75.40;44.63;;;;;;;;;;5097153;28;20933;-80
2022/11/26 05:56:06;;;;;;;72.27;44.20;;;;;;;;;;5097830;28;20483;-81
2022/11/26 05:58:33;;;;;;;76.10;44.70;;;;;;;;;;5097768;28;20408;-80
2022/11/26 06:01:01;;;;;;;81.27;46.27;;;;;;;;;;5098129;28;20481;-81
2022/11/26 06:03:28;;;;;;;71.93;40.80;;;;;;;;;;5096499;28;20549;-81
2022/11/26 06:05:55;;;;;;;79.53;44.23;;;;;;;;;;5097962;28;20479;-80
2022/11/26 06:08:22;;;;;;;66.97;41.47;;;;;;;;;;5099824;28;20455;-80
2022/11/26 06:10:49;;;;;;;77.67;39.33;;;;;;;;;;5100726;28;20963;-80
2022/11/26 06:13:17;;;;;;;65.47;42.70;;;;;;;;;;5100812;28;20429;-81
2022/11/26 06:15:44;;;;;;;68.33;42.73;;;;;;;;;;5101180;28;20463;-81
2022/11/26 06:18:11;;;;;;;62.07;40.93;;;;;;;;;;5100621;28;20456;-80
2022/11/26 06:20:38;;;;;;;72.13;40.10;;;;;;;;;;5101103;28;20445;-80
2022/11/26 06:23:06;;;;;;;84.77;44.47;;;;;;;;;;5100843;28;20480;-80
2022/11/26 06:25:34;;;;;;;62.30;40.93;;;;;;;;;;5101021;28;20539;-80
2022/11/26 06:28:01;;;;;;;63.83;41.00;;;;;;;;;;5101468;28;20448;-80
2022/11/26 06:30:30;;;;;;;57.73;39.20;;;;;;;;;;5101039;28;20455;-81
2022/11/26 06:32:57;;;;;;;70.07;42.60;;;;;;;;;;5100423;28;20529;-81
2022/11/26 06:35:24;;;;;;;63.27;40.60;;;;;;;;;;5101186;28;20472;-80
2022/11/26 06:37:51;;;;;;;68.90;41.60;;;;;;;;;;5100704;28;20437;-81
2022/11/26 06:40:19;;;;;;;65.40;41.20;;;;;;;;;;5101351;28;20561;-81
2022/11/26 06:42:50;;;;;;;69.90;41.57;;;;;;;;;;5099860;28;20452;-80
2022/11/26 06:45:23;;;;;;;58.83;41.10;;;;;;;;;;5100294;28;20473;-81
2022/11/26 06:47:52;;;;;;;63.53;42.07;;;;;;;;;;5100398;28;20432;-81
2022/11/26 06:50:20;;;;;;;67.77;41.40;;;;;;;;;;5100944;28;20442;-80
2022/11/26 06:52:47;;;;;;;68.77;42.77;;;;;;;;;;5100602;28;20449;-81
2022/11/26 06:55:14;;;;;;;66.47;42.60;;;;;;;;;;5100308;28;20463;-80
2022/11/26 06:57:41;;;;;;;57.35;40.60;;;;;;;;;;5100405;28;20472;-80
2022/11/26 07:00:09;;;;;;;60.20;40.60;;;;;;;;;;5100122;28;20207;-80
2022/11/26 07:02:38;;;;;;;67.23;42.37;;;;;;;;;;5082906;28;20469;-80
2022/11/26 07:05:07;;;;;;;62.63;40.60;;;;;;;;;;5079788;28;20504;-81
2022/11/26 07:07:37;;;;;;;63.33;41.40;;;;;;;;;;5088521;28;20445;-81
2022/11/26 07:10:04;;;;;;;67.43;42.27;;;;;;;;;;5093812;28;20445;-81
2022/11/26 07:12:31;;;;;;;63.30;39.90;;;;;;;;;;5080707;28;20454;-81
2022/11/26 07:14:58;;;;;;;60.73;42.20;;;;;;;;;;5087104;28;20468;-80
2022/11/26 07:17:25;;;;;;;60.30;41.20;;;;;;;;;;5081087;28;20881;-80
2022/11/26 07:19:53;;;;;;;64.37;41.80;;;;;;;;;;5079084;28;20414;-76
2022/11/26 07:22:21;;;;;;;51.33;39.00;;;;;;;;;;5074042;28;20454;-76
2022/11/26 07:24:48;;;;;;;51.97;40.00;;;;;;;;;;5074537;28;20482;-76
2022/11/26 07:27:15;;;;;;;62.23;40.93;;;;;;;;;;5074027;28;20939;-75
2022/11/26 07:29:42;;;;;;;54.10;39.20;;;;;;;;;;5074113;28;20423;-76
2022/11/26 07:32:09;;;;;;;67.03;41.67;;;;;;;;;;5073654;28;20441;-77
2022/11/26 07:34:36;;;;;;;67.03;41.57;;;;;;;;;;5073863;28;20477;-76
2022/11/26 07:37:03;;;;;;;59.77;38.90;;;;;;;;;;5074070;28;20450;-76
2022/11/26 07:39:32;;;;;;;58.50;41.03;;;;;;;;;;5073939;28;20486;-76
2022/11/26 07:41:59;;;;;;;39.73;35.40;;;;;;;;;;5073393;28;20456;-76
2022/11/26 07:44:26;;;;;;;60.93;41.20;;;;;;;;;;5073774;28;20478;-76
2022/11/26 07:46:53;;;;;;;51.90;36.37;;;;;;;;;;5073836;28;20429;-76
2022/11/26 07:49:20;;;;;;;45.30;36.13;;;;;;;;;;5073771;28;20458;-76
2022/11/26 07:51:47;;;;;;;51.83;36.47;;;;;;;;;;5072941;28;20930;-77
2022/11/26 07:54:14;;;;;;;52.00;39.53;;;;;;;;;;5073788;28;20454;-76
2022/11/26 07:56:42;;;;;;;50.73;35.17;;;;;;;;;;5073604;28;20471;-76
2022/11/26 07:59:10;;;;;;;41.03;32.53;;;;;;;;;;5073629;28;20439;-76
2022/11/26 08:01:37;;;;;;;43.27;34.80;;;;;;;;;;5073735;28;20506;-76
2022/11/26 08:04:06;;;;;;;34.37;30.80;;;;;;;;;;5073100;28;20552;-76
2022/11/26 08:06:33;;;;;;;44.87;34.67;;;;;;;;;;5073293;28;20482;-76
2022/11/26 08:09:01;;;;;;;40.37;34.20;;;;;;;;;;5082509;28;20435;-89
2022/11/26 08:11:30;;;;;;;49.67;34.33;;;;;;;;;;5093684;28;20527;-76
2022/11/26 08:13:59;;;;;;;42.20;32.67;;;;;;;;;;5093384;28;20450;-76
2022/11/26 08:16:28;;;;;;;41.27;32.27;;;;;;;;;;5091637;28;20439;-76
2022/11/26 08:18:56;;;;;;;39.97;31.40;;;;;;;;;;5090661;28;20432;-76
2022/11/26 08:21:23;;;;;;;41.10;32.30;;;;;;;;;;5093929;28;20455;-76
2022/11/26 08:23:50;;;;;;;34.50;30.70;;;;;;;;;;5093230;28;20864;-77
2022/11/26 08:26:17;;;;;;;33.70;30.13;;;;;;;;;;5092802;28;20494;-76
2022/11/26 08:28:44;;;;;;;40.40;31.07;;;;;;;;;;5093151;28;20444;-76
2022/11/26 08:31:14;;;;;;;34.73;31.13;;;;;;;;;;5092148;28;20441;-76
2022/11/26 08:33:42;;;;;;;37.50;29.77;;;;;;;;;;5092892;28;20458;-77
2022/11/26 08:36:09;;;;;;;40.50;33.33;;;;;;;;;;5093059;28;20496;-77
2022/11/26 08:38:37;;;;;;;39.13;33.60;;;;;;;;;;5092628;28;20468;-76
2022/11/26 08:41:05;;;;;;;36.00;31.80;;;;;;;;;;5093424;28;20812;-77
2022/11/26 08:43:32;;;;;;;37.20;33.50;;;;;;;;;;5092672;28;20460;-76
2022/11/26 08:46:00;;;;;;;36.73;29.43;;;;;;;;;;5092749;28;20443;-75
2022/11/26 08:48:29;;;;;;;37.53;30.67;;;;;;;;;;5092596;28;20475;-76
2022/11/26 08:50:57;;;;;;;41.10;33.33;;;;;;;;;;5092864;28;20961;-76
2022/11/26 08:53:24;;;;;;;45.13;31.63;;;;;;;;;;5092464;28;20423;-75
2022/11/26 08:55:51;;;;;;;35.97;32.07;;;;;;;;;;5092897;28;20460;-76
2022/11/26 08:58:19;;;;;;;35.57;32.03;;;;;;;;;;5093460;28;20452;-76
2022/11/26 09:00:46;;;;;;;32.67;29.57;;;;;;;;;;5091389;28;20529;-76
2022/11/26 09:03:13;;;;;;;34.70;31.20;;;;;;;;;;5080737;28;20441;-83
2022/11/26 09:05:42;;;;;;;44.43;32.70;;;;;;;;;;5093357;28;20467;-76
2022/11/26 09:08:09;;;;;;;34.73;30.67;;;;;;;;;;5072764;28;20453;-75
2022/11/26 09:10:36;;;;;;;31.37;28.47;;;;;;;;;;5072920;28;20779;-76
2022/11/26 09:13:03;;;;;;;34.67;31.23;;;;;;;;;;5082838;28;20451;-75
2022/11/26 09:15:30;;;;;;;38.67;31.67;;;;;;;;;;5094507;28;20475;-79
2022/11/26 09:17:57;;;;;;;34.40;30.17;;;;;;;;;;5097176;28;20461;-81
2022/11/26 09:20:24;;;;;;;34.13;30.47;;;;;;;;;;5093633;28;20429;-76
2022/11/26 09:22:52;;;;;;;35.23;30.20;;;;;;;;;;5092515;28;20455;-76
2022/11/26 09:25:19;;;;;;;36.87;31.47;;;;;;;;;;5093858;28;20494;-84
2022/11/26 09:27:47;;;;;;;32.23;28.93;;;;;;;;;;5092359;28;20477;-83
2022/11/26 09:30:15;;;;;;;32.33;28.90;;;;;;;;;;5101102;28;20448;-83
2022/11/26 09:32:42;;;;;;;37.67;31.10;;;;;;;;;;5096544;28;20456;-76
2022/11/26 09:35:09;;;;;;;31.50;28.47;;;;;;;;;;5092690;28;20472;-76
2022/11/26 09:37:37;;;;;;;32.93;29.53;;;;;;;;;;5097402;28;20487;-86
2022/11/26 09:40:06;;;;;;;35.57;30.70;;;;;;;;;;5101898;28;20448;-84
2022/11/26 09:42:41;;;;;;;32.37;28.90;;;;;;;;;;5105860;28;20455;-85
2022/11/26 09:45:12;;;;;;;28.13;25.30;;;;;;;;;;5095429;28;20496;-85
2022/11/26 09:47:41;;;;;;;28.37;25.47;;;;;;;;;;5083597;28;20473;-85
2022/11/26 09:50:17;;;;;;;30.10;27.20;;;;;;;;;;5098527;28;20920;-86
2022/11/26 09:52:45;;;;;;;33.33;28.63;;;;;;;;;;5099968;28;20443;-82
2022/11/26 09:55:16;;;;;;;33.00;29.60;;;;;;;;;;5103045;28;20473;-75
2022/11/26 09:57:44;;;;;;;26.60;24.20;;;;;;;;;;5098956;28;20441;-76
2022/11/26 10:00:20;;;;;;;33.47;29.10;;;;;;;;;;5102183;28;20509;-82
2022/11/26 10:02:47;;;;;;;28.37;25.27;;;;;;;;;;5103409;28;20479;-83
2022/11/26 10:05:15;;;;;;;30.77;27.83;;;;;;;;;;5099313;28;20488;-76
2022/11/26 10:07:50;;;;;;;30.57;27.33;;;;;;;;;;5098768;28;20446;-84
2022/11/26 10:10:22;;;;;;;30.47;26.77;;;;;;;;;;5102386;28;21010;-81
2022/11/26 10:12:56;;;;;;;30.37;27.10;;;;;;;;;;5096030;28;20781;-77
2022/11/26 10:15:27;;;;;;;38.80;28.67;;;;;;;;;;5095560;28;21019;-77
2022/11/26 10:17:57;;;;;;;29.63;26.93;;;;;;;;;;5096201;28;20468;-76
2022/11/26 10:20:44;;;;;;;29.60;27.00;;;;;;;;;;5096294;28;20446;-76
2022/11/26 10:23:17;;;;;;;31.13;28.20;;;;;;;;;;5095640;28;20463;-78
2022/11/26 10:25:47;;;;;;;26.77;24.77;;;;;;;;;;5096061;28;20489;-77
2022/11/26 10:28:19;;;;;;;28.13;25.50;;;;;;;;;;5096134;28;20772;-77
2022/11/26 10:30:51;;;;;;;30.67;26.77;;;;;;;;;;5096107;28;20462;-76
2022/11/26 10:33:19;;;;;;;25.80;22.47;;;;;;;;;;5095465;28;20428;-77
2022/11/26 10:35:49;;;;;;;32.27;26.10;;;;;;;;;;5095971;28;20471;-75
2022/11/26 10:38:17;;;;;;;28.40;24.80;;;;;;;;;;5098430;28;20459;-85
2022/11/26 10:40:44;;;;;;;29.17;26.40;;;;;;;;;;5101758;28;20430;-76
2022/11/26 10:43:18;;;;;;;28.70;25.50;;;;;;;;;;5095603;28;20444;-78
2022/11/26 10:45:46;;;;;;;28.53;25.53;;;;;;;;;;5095728;28;20488;-77
2022/11/26 10:48:20;;;;;;;30.17;27.43;;;;;;;;;;5104250;28;20959;-80
2022/11/26 10:50:55;;;;;;;26.07;23.97;;;;;;;;;;5104179;28;20460;-83
2022/11/26 10:53:23;;;;;;;29.10;26.40;;;;;;;;;;5085992;28;20459;-84
2022/11/26 10:55:51;;;;;;;31.47;28.33;;;;;;;;;;5086710;28;20462;-84
2022/11/26 10:58:20;;;;;;;31.07;28.47;;;;;;;;;;5086388;28;20444;-82
2022/11/26 11:00:55;;;;;;;29.63;27.07;;;;;;;;;;5085909;28;20941;-82
2022/11/26 11:03:23;;;;;;;31.23;28.30;;;;;;;;;;5084389;28;20471;-85
2022/11/26 11:05:50;;;;;;;30.07;26.90;;;;;;;;;;5087791;28;20466;-83
2022/11/26 11:08:31;;;;;;;34.40;28.07;;;;;;;;;;5085139;28;20437;-84
2022/11/26 11:10:59;;;;;;;27.43;24.50;;;;;;;;;;5085103;28;20447;-84
2022/11/26 11:13:39;;;;;;;30.60;27.30;;;;;;;;;;5083708;28;20445;-85
2022/11/26 11:16:06;;;;;;;28.83;26.13;;;;;;;;;;5082888;28;20440;-85
2022/11/26 11:18:34;;;;;;;30.87;27.70;;;;;;;;;;5084841;28;20489;-86
2022/11/26 11:21:03;;;;;;;34.63;31.23;;;;;;;;;;5083495;28;20464;-85
2022/11/26 11:23:32;;;;;;;33.37;30.23;;;;;;;;;;5083738;28;20634;-86
2022/11/26 11:26:00;;;;;;;31.17;27.87;;;;;;;;;;5082914;28;20493;-86
2022/11/26 11:28:28;;;;;;;33.17;30.00;;;;;;;;;;5082945;28;20456;-86
2022/11/26 11:31:08;;;;;;;36.40;30.77;;;;;;;;;;5083182;28;20467;-82
2022/11/26 11:33:36;;;;;;;32.97;29.17;;;;;;;;;;5080968;28;20519;-87
2022/11/26 11:36:05;;;;;;;30.93;27.83;;;;;;;;;;5080246;28;21020;-86
2022/11/26 11:38:33;;;;;;;31.27;26.20;;;;;;;;;;5078792;28;20424;-76
2022/11/26 11:41:02;;;;;;;32.27;28.83;;;;;;;;;;5076234;28;20445;-75
2022/11/26 11:43:34;;;;;;;29.37;26.20;;;;;;;;;;5078869;28;20815;-85
2022/11/26 11:46:13;;;;;;;29.40;25.53;;;;;;;;;;5076159;28;20485;-77
2022/11/26 11:48:45;;;;;;;34.97;28.17;;;;;;;;;;5074626;28;20438;-82
2022/11/26 11:51:15;;;;;;;28.77;25.90;;;;;;;;;;5073596;28;21052;-76
2022/11/26 11:53:46;;;;;;;29.40;26.40;;;;;;;;;;5073008;28;20933;-76
2022/11/26 11:56:19;;;;;;;33.60;28.13;;;;;;;;;;5073457;28;21361;-76
2022/11/26 11:59:01;;;;;;;30.73;27.53;;;;;;;;;;5073129;28;20427;-77
2022/11/26 12:01:38;;;;;;;30.17;27.33;;;;;;;;;;5070482;28;20446;-77
2022/11/26 12:04:18;;;;;;;29.87;26.83;;;;;;;;;;5073112;28;20826;-76
2022/11/26 12:06:51;;;;;;;31.80;28.50;;;;;;;;;;5072997;28;20498;-77
2022/11/26 12:09:22;;;;;;;38.70;30.60;;;;;;;;;;5073418;28;20433;-76
2022/11/26 12:11:52;;;;;;;29.93;26.73;;;;;;;;;;5073001;28;20441;-84
2022/11/26 12:14:20;;;;;;;30.93;27.43;;;;;;;;;;5075722;28;20426;-76
2022/11/26 12:16:51;;;;;;;31.17;28.07;;;;;;;;;;5078255;28;20483;-84
2022/11/26 12:19:22;;;;;;;31.83;26.57;;;;;;;;;;5079784;28;20458;-84
2022/11/26 12:21:53;;;;;;;34.67;27.23;;;;;;;;;;5078846;28;20437;-77
2022/11/26 12:24:23;;;;;;;32.17;26.60;;;;;;;;;;5073512;28;20449;-77
2022/11/26 12:26:54;;;;;;;25.37;23.50;;;;;;;;;;5075692;28;20462;-83
2022/11/26 12:29:25;;;;;;;33.10;28.30;;;;;;;;;;5078505;28;20462;-79
2022/11/26 12:31:55;;;;;;;30.37;27.20;;;;;;;;;;5079902;28;20450;-80
2022/11/26 12:34:25;;;;;;;31.33;27.27;;;;;;;;;;5079808;28;20883;-80
2022/11/26 12:36:55;;;;;;;31.10;27.60;;;;;;;;;;5078597;28;20528;-80
2022/11/26 12:39:28;;;;;;;30.43;27.27;;;;;;;;;;5078469;28;20441;-79
2022/11/26 12:41:57;;;;;;;34.10;27.50;;;;;;;;;;5078993;28;20429;-79
2022/11/26 12:44:28;;;;;;;29.77;26.93;;;;;;;;;;5078855;28;20452;-78
2022/11/26 12:46:59;;;;;;;30.03;26.93;;;;;;;;;;5079713;28;20452;-80
2022/11/26 12:49:30;;;;;;;30.40;27.40;;;;;;;;;;5080428;28;20432;-80
2022/11/26 12:52:02;;;;;;;31.43;27.70;;;;;;;;;;5080127;28;20420;-80
2022/11/26 12:54:31;;;;;;;30.93;26.80;;;;;;;;;;5080438;28;20414;-80
2022/11/26 12:57:01;;;;;;;31.47;28.27;;;;;;;;;;5081039;28;20896;-79
2022/11/26 12:59:31;;;;;;;30.00;26.80;;;;;;;;;;5079556;28;20418;-79
2022/11/26 13:02:00;;;;;;;30.93;26.43;;;;;;;;;;5078904;28;20448;-79
2022/11/26 13:04:28;;;;;;;30.13;26.90;;;;;;;;;;5079222;28;20445;-80
2022/11/26 13:07:07;;;;;;;30.67;27.07;;;;;;;;;;5079087;28;21000;-80
2022/11/26 13:09:45;;;;;;;31.13;26.50;;;;;;;;;;5078632;28;20430;-79
2022/11/26 13:12:16;;;;;;;30.47;27.03;;;;;;;;;;5078361;28;20434;-79
2022/11/26 13:14:45;;;;;;;30.80;26.63;;;;;;;;;;5078791;28;20434;-79
2022/11/26 13:17:16;;;;;;;29.70;25.77;;;;;;;;;;5080879;28;20427;-79
2022/11/26 13:19:45;;;;;;;28.70;25.80;;;;;;;;;;5082178;28;20433;-79
2022/11/26 13:22:42;;;;;;;28.17;25.50;;;;;;;;;;5082609;28;20924;-79
2022/11/26 13:25:23;;;;;;;30.50;27.20;;;;;;;;;;5000201;28;20496;-80
2022/11/26 13:27:55;;;;;;;29.93;26.93;;;;;;;;;;5070279;28;20496;-79
2022/11/26 13:30:25;;;;;;;30.73;25.70;;;;;;;;;;5083122;28;20458;-79
2022/11/26 13:33:02;;;;;;;30.40;26.97;;;;;;;;;;5082908;28;20444;-79
2022/11/26 13:35:38;;;;;;;31.97;28.87;;;;;;;;;;5083208;28;20481;-79
2022/11/26 13:38:14;;;;;;;27.90;25.10;;;;;;;;;;5083694;28;20452;-79
2022/11/26 13:40:52;;;;;;;28.17;25.57;;;;;;;;;;5083272;28;20440;-80
2022/11/26 13:43:52;;;;;;;28.27;25.30;;;;;;;;;;5082427;28;20433;-79
2022/11/26 13:46:21;;;;;;;32.83;26.00;;;;;;;;;;5081944;28;20488;-79
2022/11/26 13:48:53;;;;;;;30.43;27.30;;;;;;;;;;5082248;28;20442;-79
2022/11/26 13:51:24;;;;;;;28.63;26.10;;;;;;;;;;5083657;28;20437;-79
2022/11/26 13:53:53;;;;;;;28.53;25.50;;;;;;;;;;5083291;28;20438;-79
2022/11/26 13:56:22;;;;;;;29.53;26.63;;;;;;;;;;5083323;28;20439;-79
2022/11/26 13:58:50;;;;;;;29.37;26.00;;;;;;;;;;5083188;28;20456;-78
2022/11/26 14:01:28;;;;;;;30.13;26.30;;;;;;;;;;5084037;28;20449;-79
2022/11/26 14:03:56;;;;;;;33.10;26.47;;;;;;;;;;5082651;28;20423;-79
2022/11/26 14:06:24;;;;;;;28.70;24.83;;;;;;;;;;5083512;28;20887;-79
2022/11/26 14:08:51;;;;;;;28.50;25.43;;;;;;;;;;5083688;28;20400;-79
2022/11/26 14:11:37;;;;;;;28.30;25.73;;;;;;;;;;5083813;28;20445;-79
2022/11/26 14:14:22;;;;;;;30.03;24.93;;;;;;;;;;5082947;28;20437;-79
2022/11/26 14:17:05;;;;;;;28.33;25.33;;;;;;;;;;5083369;28;20472;-79
2022/11/26 14:19:58;;;;;;;27.00;24.40;;;;;;;;;;5082606;28;20487;-79
2022/11/26 14:22:29;;;;;;;29.53;26.47;;;;;;;;;;5079997;28;20477;-78
2022/11/26 14:24:57;;;;;;;27.47;24.73;;;;;;;;;;5075876;28;21003;-78
2022/11/26 14:27:26;;;;;;;30.03;27.00;;;;;;;;;;5082159;28;20416;-79